sensor_id;sensor_type;location;lat;lon;timestamp;temperature;humidity
8896;DHT22;4484;48.928;10.066;2022-09-09T00:00:15;11.50;99.90
8896;DHT22;4484;48.928;10.066;2022-09-09T00:05:53;11.50;99.90
8896;DHT22;4484;48.928;10.066;2022-09-09T00:08:32;11.40;99.90
8896;DHT22;4484;48.928;10.066;2022-09-09T00:11:03;11.30;99.90
8896;DHT22;4484;48.928;10.066;2022-09-09T00:13:46;11.30;99.90
8896;DHT22;4484;48.928;10.066;2022-09-09T00:16:19;11.20;99.90
8896;DHT22;4484;48.928;10.066;2022-09-09T00:19:07;11.20;99.90
8896;DHT22;4484;48.928;10.066;2022-09-09T00:21:38;11.20;99.90
8896;DHT22;4484;48.928;10.066;2022-09-09T00:24:13;11.20;99.90
8896;DHT22;4484;48.928;10.066;2022-09-09T00:26:48;11.10;99.90
8896;DHT22;4484;48.928;10.066;2022-09-09T00:32:16;11.10;99.90
8896;DHT22;4484;48.928;10.066;2022-09-09T00:35:02;11.00;99.90
8896;DHT22;4484;48.928;10.066;2022-09-09T00:37:30;11.00;99.90
8896;DHT22;4484;48.928;10.066;2022-09-09T00:40:01;11.00;99.90
8896;DHT22;4484;48.928;10.066;2022-09-09T00:42:54;11.00;99.90
8896;DHT22;4484;48.928;10.066;2022-09-09T00:48:11;11.00;99.90
8896;DHT22;4484;48.928;10.066;2022-09-09T00:51:01;11.00;99.90
8896;DHT22;4484;48.928;10.066;2022-09-09T00:56:51;11.00;99.90
8896;DHT22;4484;48.928;10.066;2022-09-09T00:59:32;10.90;99.90
8896;DHT22;4484;48.928;10.066;2022-09-09T01:02:16;10.90;99.90
8896;DHT22;4484;48.928;10.066;2022-09-09T01:04:44;10.90;99.90
8896;DHT22;4484;48.928;10.066;2022-09-09T01:07:17;10.90;99.90
8896;DHT22;4484;48.928;10.066;2022-09-09T01:09:55;10.90;99.90
8896;DHT22;4484;48.928;10.066;2022-09-09T01:12:41;10.90;99.90
8896;DHT22;4484;48.928;10.066;2022-09-09T01:15:20;10.90;99.90
8896;DHT22;4484;48.928;10.066;2022-09-09T01:20:39;11.00;99.90
8896;DHT22;4484;48.928;10.066;2022-09-09T01:24:07;10.90;99.90
8896;DHT22;4484;48.928;10.066;2022-09-09T01:26:44;10.90;99.90
8896;DHT22;4484;48.928;10.066;2022-09-09T01:29:21;11.00;99.90
8896;DHT22;4484;48.928;10.066;2022-09-09T01:31:58;11.00;99.90
8896;DHT22;4484;48.928;10.066;2022-09-09T01:34:29;11.00;99.90
8896;DHT22;4484;48.928;10.066;2022-09-09T01:37:06;11.00;99.90
8896;DHT22;4484;48.928;10.066;2022-09-09T01:39:36;11.00;99.90
8896;DHT22;4484;48.928;10.066;2022-09-09T01:42:09;11.00;99.90
8896;DHT22;4484;48.928;10.066;2022-09-09T01:44:38;11.10;99.90
8896;DHT22;4484;48.928;10.066;2022-09-09T01:47:07;11.10;99.90
8896;DHT22;4484;48.928;10.066;2022-09-09T01:49:46;11.10;99.90
8896;DHT22;4484;48.928;10.066;2022-09-09T01:52:20;11.20;99.90
8896;DHT22;4484;48.928;10.066;2022-09-09T01:54:47;11.20;99.90
8896;DHT22;4484;48.928;10.066;2022-09-09T02:00:08;11.20;99.90
8896;DHT22;4484;48.928;10.066;2022-09-09T02:03:05;11.20;99.90
8896;DHT22;4484;48.928;10.066;2022-09-09T02:08:42;11.30;99.90
8896;DHT22;4484;48.928;10.066;2022-09-09T02:11:21;11.30;99.90
8896;DHT22;4484;48.928;10.066;2022-09-09T02:14:05;11.30;99.90
8896;DHT22;4484;48.928;10.066;2022-09-09T02:16:42;11.20;99.90
8896;DHT22;4484;48.928;10.066;2022-09-09T02:19:21;11.20;99.90
8896;DHT22;4484;48.928;10.066;2022-09-09T02:22:04;11.20;99.90
8896;DHT22;4484;48.928;10.066;2022-09-09T02:24:34;11.20;99.90
8896;DHT22;4484;48.928;10.066;2022-09-09T02:27:13;11.20;99.90
8896;DHT22;4484;48.928;10.066;2022-09-09T02:29:42;11.20;99.90
8896;DHT22;4484;48.928;10.066;2022-09-09T02:32:16;11.10;99.90
8896;DHT22;4484;48.928;10.066;2022-09-09T02:34:48;11.10;99.90
8896;DHT22;4484;48.928;10.066;2022-09-09T02:37:18;11.10;99.90
8896;DHT22;4484;48.928;10.066;2022-09-09T02:39:50;11.10;99.90
8896;DHT22;4484;48.928;10.066;2022-09-09T02:42:20;11.10;99.90
8896;DHT22;4484;48.928;10.066;2022-09-09T02:44:47;11.10;99.90
8896;DHT22;4484;48.928;10.066;2022-09-09T02:47:36;11.00;99.90
8896;DHT22;4484;48.928;10.066;2022-09-09T02:50:15;11.00;99.90
8896;DHT22;4484;48.928;10.066;2022-09-09T02:55:38;11.00;99.90
8896;DHT22;4484;48.928;10.066;2022-09-09T02:58:11;11.00;99.90
8896;DHT22;4484;48.928;10.066;2022-09-09T03:00:40;11.00;99.90
8896;DHT22;4484;48.928;10.066;2022-09-09T03:03:08;11.00;99.90
8896;DHT22;4484;48.928;10.066;2022-09-09T03:05:38;11.00;99.90
8896;DHT22;4484;48.928;10.066;2022-09-09T03:08:05;11.10;99.90
8896;DHT22;4484;48.928;10.066;2022-09-09T03:10:33;11.10;99.90
8896;DHT22;4484;48.928;10.066;2022-09-09T03:12:59;11.20;99.90
8896;DHT22;4484;48.928;10.066;2022-09-09T03:15:34;11.20;99.90
8896;DHT22;4484;48.928;10.066;2022-09-09T03:18:01;11.20;99.90
8896;DHT22;4484;48.928;10.066;2022-09-09T03:20:29;11.20;99.90
8896;DHT22;4484;48.928;10.066;2022-09-09T03:22:58;11.20;99.90
8896;DHT22;4484;48.928;10.066;2022-09-09T03:25:26;11.10;99.90
8896;DHT22;4484;48.928;10.066;2022-09-09T03:27:53;11.10;99.90
8896;DHT22;4484;48.928;10.066;2022-09-09T03:30:26;11.10;99.90
8896;DHT22;4484;48.928;10.066;2022-09-09T03:32:55;11.10;99.90
8896;DHT22;4484;48.928;10.066;2022-09-09T03:35:24;11.00;99.90
8896;DHT22;4484;48.928;10.066;2022-09-09T03:37:51;11.00;99.90
8896;DHT22;4484;48.928;10.066;2022-09-09T03:40:18;10.90;99.90
8896;DHT22;4484;48.928;10.066;2022-09-09T03:42:47;10.90;99.90
8896;DHT22;4484;48.928;10.066;2022-09-09T03:45:17;10.90;99.90
8896;DHT22;4484;48.928;10.066;2022-09-09T03:47:44;10.80;99.90
8896;DHT22;4484;48.928;10.066;2022-09-09T03:50:11;10.80;99.90
8896;DHT22;4484;48.928;10.066;2022-09-09T03:52:43;10.70;99.90
8896;DHT22;4484;48.928;10.066;2022-09-09T03:55:17;10.70;99.90
8896;DHT22;4484;48.928;10.066;2022-09-09T03:57:44;10.60;99.90
8896;DHT22;4484;48.928;10.066;2022-09-09T04:00:11;10.60;99.90
8896;DHT22;4484;48.928;10.066;2022-09-09T04:02:50;10.60;99.90
8896;DHT22;4484;48.928;10.066;2022-09-09T04:05:18;10.60;99.90
8896;DHT22;4484;48.928;10.066;2022-09-09T04:07:46;10.60;99.90
8896;DHT22;4484;48.928;10.066;2022-09-09T04:10:14;10.60;99.90
8896;DHT22;4484;48.928;10.066;2022-09-09T04:12:43;10.60;99.90
8896;DHT22;4484;48.928;10.066;2022-09-09T04:15:15;10.60;99.90
8896;DHT22;4484;48.928;10.066;2022-09-09T04:17:43;10.70;99.90
8896;DHT22;4484;48.928;10.066;2022-09-09T04:20:10;10.80;99.90
8896;DHT22;4484;48.928;10.066;2022-09-09T04:22:38;10.90;99.90
8896;DHT22;4484;48.928;10.066;2022-09-09T04:25:06;11.00;99.90
8896;DHT22;4484;48.928;10.066;2022-09-09T04:27:34;11.10;99.90
8896;DHT22;4484;48.928;10.066;2022-09-09T04:30:01;11.10;99.90
8896;DHT22;4484;48.928;10.066;2022-09-09T04:32:33;11.10;99.90
8896;DHT22;4484;48.928;10.066;2022-09-09T04:35:00;11.20;99.90
8896;DHT22;4484;48.928;10.066;2022-09-09T04:37:27;11.40;99.90
8896;DHT22;4484;48.928;10.066;2022-09-09T04:39:54;11.60;99.90
8896;DHT22;4484;48.928;10.066;2022-09-09T04:42:22;11.70;99.90
8896;DHT22;4484;48.928;10.066;2022-09-09T04:44:49;11.90;99.90
8896;DHT22;4484;48.928;10.066;2022-09-09T04:47:16;12.00;99.90
8896;DHT22;4484;48.928;10.066;2022-09-09T04:49:44;12.10;99.90
8896;DHT22;4484;48.928;10.066;2022-09-09T04:52:10;12.20;99.90
8896;DHT22;4484;48.928;10.066;2022-09-09T04:54:37;12.20;99.90
8896;DHT22;4484;48.928;10.066;2022-09-09T04:57:05;12.30;99.90
8896;DHT22;4484;48.928;10.066;2022-09-09T04:59:32;12.30;99.90
8896;DHT22;4484;48.928;10.066;2022-09-09T05:02:01;12.30;99.90
8896;DHT22;4484;48.928;10.066;2022-09-09T05:04:29;12.30;99.90
8896;DHT22;4484;48.928;10.066;2022-09-09T05:06:56;12.30;99.90
8896;DHT22;4484;48.928;10.066;2022-09-09T05:09:23;12.30;99.90
8896;DHT22;4484;48.928;10.066;2022-09-09T05:11:51;12.30;99.90
8896;DHT22;4484;48.928;10.066;2022-09-09T05:14:33;12.40;99.90
8896;DHT22;4484;48.928;10.066;2022-09-09T05:17:04;12.40;99.90
8896;DHT22;4484;48.928;10.066;2022-09-09T05:19:33;12.40;99.90
8896;DHT22;4484;48.928;10.066;2022-09-09T05:22:01;12.40;99.90
8896;DHT22;4484;48.928;10.066;2022-09-09T05:24:35;12.40;99.90
8896;DHT22;4484;48.928;10.066;2022-09-09T05:27:04;12.40;99.90
8896;DHT22;4484;48.928;10.066;2022-09-09T05:29:32;12.30;99.90
8896;DHT22;4484;48.928;10.066;2022-09-09T05:32:05;12.30;99.90
8896;DHT22;4484;48.928;10.066;2022-09-09T05:34:35;12.30;99.90
8896;DHT22;4484;48.928;10.066;2022-09-09T05:37:01;12.30;99.90
8896;DHT22;4484;48.928;10.066;2022-09-09T05:39:29;12.30;99.90
8896;DHT22;4484;48.928;10.066;2022-09-09T05:41:56;12.30;99.90
8896;DHT22;4484;48.928;10.066;2022-09-09T05:44:23;12.30;99.90
8896;DHT22;4484;48.928;10.066;2022-09-09T05:46:54;12.30;99.90
8896;DHT22;4484;48.928;10.066;2022-09-09T05:49:21;12.30;99.90
8896;DHT22;4484;48.928;10.066;2022-09-09T05:51:48;12.30;99.90
8896;DHT22;4484;48.928;10.066;2022-09-09T05:54:18;12.40;99.90
8896;DHT22;4484;48.928;10.066;2022-09-09T05:56:49;12.40;99.90
8896;DHT22;4484;48.928;10.066;2022-09-09T05:59:18;12.50;99.90
8896;DHT22;4484;48.928;10.066;2022-09-09T06:01:45;12.60;99.90
8896;DHT22;4484;48.928;10.066;2022-09-09T06:04:20;12.60;99.90
8896;DHT22;4484;48.928;10.066;2022-09-09T06:06:49;12.70;99.90
8896;DHT22;4484;48.928;10.066;2022-09-09T06:09:17;12.80;99.90
8896;DHT22;4484;48.928;10.066;2022-09-09T06:11:44;12.90;99.90
8896;DHT22;4484;48.928;10.066;2022-09-09T06:14:13;12.90;99.90
8896;DHT22;4484;48.928;10.066;2022-09-09T06:16:42;13.00;99.90
8896;DHT22;4484;48.928;10.066;2022-09-09T06:19:17;13.10;99.90
8896;DHT22;4484;48.928;10.066;2022-09-09T06:21:44;13.20;99.90
8896;DHT22;4484;48.928;10.066;2022-09-09T06:24:12;13.20;99.90
8896;DHT22;4484;48.928;10.066;2022-09-09T06:26:41;13.30;99.90
8896;DHT22;4484;48.928;10.066;2022-09-09T06:29:11;13.30;99.90
8896;DHT22;4484;48.928;10.066;2022-09-09T06:31:40;13.50;99.90
8896;DHT22;4484;48.928;10.066;2022-09-09T06:34:20;13.70;99.90
8896;DHT22;4484;48.928;10.066;2022-09-09T06:36:52;14.00;99.90
8896;DHT22;4484;48.928;10.066;2022-09-09T06:39:19;14.30;99.90
8896;DHT22;4484;48.928;10.066;2022-09-09T06:41:46;14.80;99.90
8896;DHT22;4484;48.928;10.066;2022-09-09T06:44:33;15.20;99.90
8896;DHT22;4484;48.928;10.066;2022-09-09T06:47:02;15.60;99.90
8896;DHT22;4484;48.928;10.066;2022-09-09T06:49:31;16.10;99.90
8896;DHT22;4484;48.928;10.066;2022-09-09T06:52:04;16.60;99.90
8896;DHT22;4484;48.928;10.066;2022-09-09T06:54:31;17.00;99.90
8896;DHT22;4484;48.928;10.066;2022-09-09T06:56:58;17.20;99.90
8896;DHT22;4484;48.928;10.066;2022-09-09T06:59:47;17.60;99.90
8896;DHT22;4484;48.928;10.066;2022-09-09T07:02:14;18.00;99.90
8896;DHT22;4484;48.928;10.066;2022-09-09T07:04:41;18.50;99.90
8896;DHT22;4484;48.928;10.066;2022-09-09T07:07:08;18.90;99.90
8896;DHT22;4484;48.928;10.066;2022-09-09T07:09:36;19.30;99.90
8896;DHT22;4484;48.928;10.066;2022-09-09T07:12:04;19.40;99.90
8896;DHT22;4484;48.928;10.066;2022-09-09T07:14:35;19.70;99.90
8896;DHT22;4484;48.928;10.066;2022-09-09T07:17:06;20.00;99.90
8896;DHT22;4484;48.928;10.066;2022-09-09T07:19:37;20.20;99.90
8896;DHT22;4484;48.928;10.066;2022-09-09T07:22:04;20.50;99.90
8896;DHT22;4484;48.928;10.066;2022-09-09T07:24:34;20.70;99.90
8896;DHT22;4484;48.928;10.066;2022-09-09T07:27:02;20.80;99.90
8896;DHT22;4484;48.928;10.066;2022-09-09T07:29:30;21.00;99.90
8896;DHT22;4484;48.928;10.066;2022-09-09T07:31:57;21.20;99.90
8896;DHT22;4484;48.928;10.066;2022-09-09T07:34:30;21.30;99.90
8896;DHT22;4484;48.928;10.066;2022-09-09T07:36:57;21.40;99.90
8896;DHT22;4484;48.928;10.066;2022-09-09T07:39:24;21.50;99.90
8896;DHT22;4484;48.928;10.066;2022-09-09T07:41:53;21.60;99.90
8896;DHT22;4484;48.928;10.066;2022-09-09T07:44:24;21.70;99.90
8896;DHT22;4484;48.928;10.066;2022-09-09T07:47:02;21.90;99.90
8896;DHT22;4484;48.928;10.066;2022-09-09T07:49:35;22.40;99.90
8896;DHT22;4484;48.928;10.066;2022-09-09T07:52:03;22.60;99.90
8896;DHT22;4484;48.928;10.066;2022-09-09T07:54:31;22.80;99.90
8896;DHT22;4484;48.928;10.066;2022-09-09T07:57:01;23.10;99.90
8896;DHT22;4484;48.928;10.066;2022-09-09T07:59:32;23.50;99.90
8896;DHT22;4484;48.928;10.066;2022-09-09T08:02:00;24.00;99.90
8896;DHT22;4484;48.928;10.066;2022-09-09T08:04:30;24.30;99.90
8896;DHT22;4484;48.928;10.066;2022-09-09T08:07:00;24.30;99.90
8896;DHT22;4484;48.928;10.066;2022-09-09T08:09:29;24.40;99.90
8896;DHT22;4484;48.928;10.066;2022-09-09T08:12:37;24.40;99.90
8896;DHT22;4484;48.928;10.066;2022-09-09T08:15:05;24.60;99.90
8896;DHT22;4484;48.928;10.066;2022-09-09T08:17:33;24.80;99.90
8896;DHT22;4484;48.928;10.066;2022-09-09T08:20:05;24.60;99.90
8896;DHT22;4484;48.928;10.066;2022-09-09T08:22:33;24.40;99.90
8896;DHT22;4484;48.928;10.066;2022-09-09T08:25:00;24.50;99.90
8896;DHT22;4484;48.928;10.066;2022-09-09T08:27:31;24.70;99.90
8896;DHT22;4484;48.928;10.066;2022-09-09T08:29:59;24.90;99.20
8896;DHT22;4484;48.928;10.066;2022-09-09T08:32:28;25.00;98.40
8896;DHT22;4484;48.928;10.066;2022-09-09T08:34:55;25.10;98.50
8896;DHT22;4484;48.928;10.066;2022-09-09T08:37:28;25.20;99.40
8896;DHT22;4484;48.928;10.066;2022-09-09T08:39:56;25.40;99.00
8896;DHT22;4484;48.928;10.066;2022-09-09T08:42:50;25.60;97.50
8896;DHT22;4484;48.928;10.066;2022-09-09T08:45:24;25.60;97.10
8896;DHT22;4484;48.928;10.066;2022-09-09T08:48:00;25.60;96.20
8896;DHT22;4484;48.928;10.066;2022-09-09T08:50:34;25.60;96.00
8896;DHT22;4484;48.928;10.066;2022-09-09T08:53:26;25.50;95.80
8896;DHT22;4484;48.928;10.066;2022-09-09T08:55:58;25.30;95.70
8896;DHT22;4484;48.928;10.066;2022-09-09T08:58:53;25.20;95.30
8896;DHT22;4484;48.928;10.066;2022-09-09T09:09:51;25.50;95.10
8896;DHT22;4484;48.928;10.066;2022-09-09T09:12:23;25.60;93.90
8896;DHT22;4484;48.928;10.066;2022-09-09T09:14:54;25.40;93.50
8896;DHT22;4484;48.928;10.066;2022-09-09T09:17:25;25.50;95.10
8896;DHT22;4484;48.928;10.066;2022-09-09T09:19:54;25.40;93.70
8896;DHT22;4484;48.928;10.066;2022-09-09T09:22:30;25.00;94.20
8896;DHT22;4484;48.928;10.066;2022-09-09T09:25:11;25.20;94.60
8896;DHT22;4484;48.928;10.066;2022-09-09T09:28:02;25.60;94.40
8896;DHT22;4484;48.928;10.066;2022-09-09T09:31:04;25.80;93.00
8896;DHT22;4484;48.928;10.066;2022-09-09T09:36:13;26.30;91.80
8896;DHT22;4484;48.928;10.066;2022-09-09T09:39:21;26.60;92.70
8896;DHT22;4484;48.928;10.066;2022-09-09T09:42:13;27.00;92.90
8896;DHT22;4484;48.928;10.066;2022-09-09T09:44:45;26.60;90.60
8896;DHT22;4484;48.928;10.066;2022-09-09T09:47:20;26.40;91.10
8896;DHT22;4484;48.928;10.066;2022-09-09T09:50:00;26.50;91.90
8896;DHT22;4484;48.928;10.066;2022-09-09T09:52:35;26.90;91.50
8896;DHT22;4484;48.928;10.066;2022-09-09T09:55:12;27.30;91.30
8896;DHT22;4484;48.928;10.066;2022-09-09T09:57:41;27.60;90.60
8896;DHT22;4484;48.928;10.066;2022-09-09T10:00:18;27.40;90.00
8896;DHT22;4484;48.928;10.066;2022-09-09T10:02:57;26.90;90.30
8896;DHT22;4484;48.928;10.066;2022-09-09T10:05:31;26.70;90.20
8896;DHT22;4484;48.928;10.066;2022-09-09T10:08:15;26.50;88.20
8896;DHT22;4484;48.928;10.066;2022-09-09T10:16:45;25.10;91.00
8896;DHT22;4484;48.928;10.066;2022-09-09T10:19:27;24.80;91.50
8896;DHT22;4484;48.928;10.066;2022-09-09T10:25:07;24.20;92.80
8896;DHT22;4484;48.928;10.066;2022-09-09T10:30:41;23.50;94.20
8896;DHT22;4484;48.928;10.066;2022-09-09T10:33:51;23.40;94.60
8896;DHT22;4484;48.928;10.066;2022-09-09T10:36:24;23.30;95.40
8896;DHT22;4484;48.928;10.066;2022-09-09T10:42:06;23.30;93.30
8896;DHT22;4484;48.928;10.066;2022-09-09T10:47:56;23.40;93.60
8896;DHT22;4484;48.928;10.066;2022-09-09T10:50:58;23.60;93.40
8896;DHT22;4484;48.928;10.066;2022-09-09T10:53:51;23.70;93.70
8896;DHT22;4484;48.928;10.066;2022-09-09T10:56:22;23.70;93.00
8896;DHT22;4484;48.928;10.066;2022-09-09T11:01:26;24.40;94.60
8896;DHT22;4484;48.928;10.066;2022-09-09T11:04:04;24.60;92.30
8896;DHT22;4484;48.928;10.066;2022-09-09T11:06:37;24.90;92.70
8896;DHT22;4484;48.928;10.066;2022-09-09T11:09:16;25.30;91.40
8896;DHT22;4484;48.928;10.066;2022-09-09T11:11:54;25.20;90.10
8896;DHT22;4484;48.928;10.066;2022-09-09T11:14:26;25.20;91.40
8896;DHT22;4484;48.928;10.066;2022-09-09T11:17:10;25.40;90.50
8896;DHT22;4484;48.928;10.066;2022-09-09T11:19:40;26.00;90.60
8896;DHT22;4484;48.928;10.066;2022-09-09T11:25:06;26.30;87.40
8896;DHT22;4484;48.928;10.066;2022-09-09T11:41:45;27.70;83.80
8896;DHT22;4484;48.928;10.066;2022-09-09T11:44:18;27.80;76.60
8896;DHT22;4484;48.928;10.066;2022-09-09T11:46:50;27.90;78.90
8896;DHT22;4484;48.928;10.066;2022-09-09T11:49:41;28.20;76.10
8896;DHT22;4484;48.928;10.066;2022-09-09T11:52:19;28.50;77.20
8896;DHT22;4484;48.928;10.066;2022-09-09T11:54:49;28.80;75.90
8896;DHT22;4484;48.928;10.066;2022-09-09T11:59:52;28.50;72.80
8896;DHT22;4484;48.928;10.066;2022-09-09T12:02:27;28.10;73.00
8896;DHT22;4484;48.928;10.066;2022-09-09T12:07:32;27.70;74.80
8896;DHT22;4484;48.928;10.066;2022-09-09T12:12:51;27.60;72.70
8896;DHT22;4484;48.928;10.066;2022-09-09T12:15:20;27.10;73.50
8896;DHT22;4484;48.928;10.066;2022-09-09T12:17:50;26.70;73.70
8896;DHT22;4484;48.928;10.066;2022-09-09T12:20:31;26.50;74.70
8896;DHT22;4484;48.928;10.066;2022-09-09T12:37:57;28.50;65.20
8896;DHT22;4484;48.928;10.066;2022-09-09T12:40:24;27.70;66.10
8896;DHT22;4484;48.928;10.066;2022-09-09T12:43:20;26.90;69.40
8896;DHT22;4484;48.928;10.066;2022-09-09T12:46:06;26.30;70.00
8896;DHT22;4484;48.928;10.066;2022-09-09T12:48:41;25.60;73.50
8896;DHT22;4484;48.928;10.066;2022-09-09T12:51:25;24.20;79.40
8896;DHT22;4484;48.928;10.066;2022-09-09T12:53:54;22.70;85.10
8896;DHT22;4484;48.928;10.066;2022-09-09T12:56:27;21.30;90.40
8896;DHT22;4484;48.928;10.066;2022-09-09T12:58:57;20.40;93.80
8896;DHT22;4484;48.928;10.066;2022-09-09T13:01:30;19.90;94.50
8896;DHT22;4484;48.928;10.066;2022-09-09T13:03:58;19.60;95.70
8896;DHT22;4484;48.928;10.066;2022-09-09T13:06:26;19.40;97.00
8896;DHT22;4484;48.928;10.066;2022-09-09T13:08:57;19.40;97.70
8896;DHT22;4484;48.928;10.066;2022-09-09T13:11:39;19.50;98.10
8896;DHT22;4484;48.928;10.066;2022-09-09T13:14:16;19.70;98.70
8896;DHT22;4484;48.928;10.066;2022-09-09T13:16:58;20.00;99.80
8896;DHT22;4484;48.928;10.066;2022-09-09T13:19:26;20.30;99.90
8896;DHT22;4484;48.928;10.066;2022-09-09T13:21:55;20.90;99.90
8896;DHT22;4484;48.928;10.066;2022-09-09T13:24:30;21.60;99.90
8896;DHT22;4484;48.928;10.066;2022-09-09T13:29:53;23.20;97.50
8896;DHT22;4484;48.928;10.066;2022-09-09T13:32:25;24.00;97.40
8896;DHT22;4484;48.928;10.066;2022-09-09T13:34:58;24.20;94.50
8896;DHT22;4484;48.928;10.066;2022-09-09T13:39:58;24.40;93.00
8896;DHT22;4484;48.928;10.066;2022-09-09T13:42:27;24.60;93.80
8896;DHT22;4484;48.928;10.066;2022-09-09T13:44:56;24.70;93.20
8896;DHT22;4484;48.928;10.066;2022-09-09T13:47:34;24.90;93.80
8896;DHT22;4484;48.928;10.066;2022-09-09T13:50:26;25.10;93.50
8896;DHT22;4484;48.928;10.066;2022-09-09T13:52:56;25.40;93.10
8896;DHT22;4484;48.928;10.066;2022-09-09T13:55:29;25.40;90.10
8896;DHT22;4484;48.928;10.066;2022-09-09T13:58:01;25.20;88.80
8896;DHT22;4484;48.928;10.066;2022-09-09T14:00:33;25.00;89.60
8896;DHT22;4484;48.928;10.066;2022-09-09T14:03:00;24.90;89.70
8896;DHT22;4484;48.928;10.066;2022-09-09T14:05:33;24.80;90.10
8896;DHT22;4484;48.928;10.066;2022-09-09T14:08:00;24.80;90.20
8896;DHT22;4484;48.928;10.066;2022-09-09T14:10:27;24.70;90.20
8896;DHT22;4484;48.928;10.066;2022-09-09T14:12:54;24.60;88.90
8896;DHT22;4484;48.928;10.066;2022-09-09T14:15:21;24.60;91.70
8896;DHT22;4484;48.928;10.066;2022-09-09T14:17:48;24.60;90.30
8896;DHT22;4484;48.928;10.066;2022-09-09T14:20:15;24.50;90.70
8896;DHT22;4484;48.928;10.066;2022-09-09T14:22:44;24.30;89.80
8896;DHT22;4484;48.928;10.066;2022-09-09T14:25:11;24.40;91.50
8896;DHT22;4484;48.928;10.066;2022-09-09T14:27:41;24.40;91.70
8896;DHT22;4484;48.928;10.066;2022-09-09T14:30:09;24.50;90.00
8896;DHT22;4484;48.928;10.066;2022-09-09T14:32:36;24.40;89.20
8896;DHT22;4484;48.928;10.066;2022-09-09T14:35:03;24.00;88.20
8896;DHT22;4484;48.928;10.066;2022-09-09T14:37:30;23.50;90.50
8896;DHT22;4484;48.928;10.066;2022-09-09T14:39:58;23.10;90.80
8896;DHT22;4484;48.928;10.066;2022-09-09T14:42:25;22.90;91.30
8896;DHT22;4484;48.928;10.066;2022-09-09T14:44:53;22.70;92.10
8896;DHT22;4484;48.928;10.066;2022-09-09T14:47:20;22.50;92.30
8896;DHT22;4484;48.928;10.066;2022-09-09T14:49:47;22.30;92.40
8896;DHT22;4484;48.928;10.066;2022-09-09T14:52:16;22.20;92.70
8896;DHT22;4484;48.928;10.066;2022-09-09T14:54:43;22.20;93.30
8896;DHT22;4484;48.928;10.066;2022-09-09T14:57:09;22.50;93.80
8896;DHT22;4484;48.928;10.066;2022-09-09T14:59:36;22.80;92.20
8896;DHT22;4484;48.928;10.066;2022-09-09T15:02:04;22.90;92.40
8896;DHT22;4484;48.928;10.066;2022-09-09T15:04:31;22.80;93.20
8896;DHT22;4484;48.928;10.066;2022-09-09T15:06:59;22.70;91.70
8896;DHT22;4484;48.928;10.066;2022-09-09T15:09:26;22.70;91.10
8896;DHT22;4484;48.928;10.066;2022-09-09T15:12:00;22.60;91.80
8896;DHT22;4484;48.928;10.066;2022-09-09T15:14:53;22.70;91.20
8896;DHT22;4484;48.928;10.066;2022-09-09T15:17:21;22.50;90.00
8896;DHT22;4484;48.928;10.066;2022-09-09T15:19:48;22.50;90.80
8896;DHT22;4484;48.928;10.066;2022-09-09T15:22:16;22.40;90.90
8896;DHT22;4484;48.928;10.066;2022-09-09T15:24:43;22.30;90.90
8896;DHT22;4484;48.928;10.066;2022-09-09T15:27:10;22.20;90.50
8896;DHT22;4484;48.928;10.066;2022-09-09T15:29:36;22.10;91.50
8896;DHT22;4484;48.928;10.066;2022-09-09T15:32:04;22.00;90.50
8896;DHT22;4484;48.928;10.066;2022-09-09T15:34:32;22.00;91.30
8896;DHT22;4484;48.928;10.066;2022-09-09T15:36:59;21.90;90.80
8896;DHT22;4484;48.928;10.066;2022-09-09T15:39:26;21.80;90.40
8896;DHT22;4484;48.928;10.066;2022-09-09T15:41:53;21.80;90.70
8896;DHT22;4484;48.928;10.066;2022-09-09T15:44:42;21.80;91.30
8896;DHT22;4484;48.928;10.066;2022-09-09T15:47:13;21.80;91.40
8896;DHT22;4484;48.928;10.066;2022-09-09T15:49:41;21.80;91.50
8896;DHT22;4484;48.928;10.066;2022-09-09T15:52:11;21.70;90.40
8896;DHT22;4484;48.928;10.066;2022-09-09T15:54:41;21.60;90.20
8896;DHT22;4484;48.928;10.066;2022-09-09T15:57:12;21.40;90.00
8896;DHT22;4484;48.928;10.066;2022-09-09T15:59:39;21.20;90.40
8896;DHT22;4484;48.928;10.066;2022-09-09T16:02:06;21.00;90.70
8896;DHT22;4484;48.928;10.066;2022-09-09T16:04:34;21.00;91.00
8896;DHT22;4484;48.928;10.066;2022-09-09T16:07:03;21.00;90.60
8896;DHT22;4484;48.928;10.066;2022-09-09T16:09:31;21.00;90.60
8896;DHT22;4484;48.928;10.066;2022-09-09T16:12:00;20.90;91.00
8896;DHT22;4484;48.928;10.066;2022-09-09T16:14:32;20.80;90.60
8896;DHT22;4484;48.928;10.066;2022-09-09T17:19:54;18.20;95.10
8896;DHT22;4484;48.928;10.066;2022-09-09T17:22:21;18.00;95.90
8896;DHT22;4484;48.928;10.066;2022-09-09T17:24:49;18.00;96.60
8896;DHT22;4484;48.928;10.066;2022-09-09T17:27:16;17.90;97.10
8896;DHT22;4484;48.928;10.066;2022-09-09T17:29:43;17.90;97.60
8896;DHT22;4484;48.928;10.066;2022-09-09T17:32:09;17.80;98.20
8896;DHT22;4484;48.928;10.066;2022-09-09T17:34:36;17.80;98.60
8896;DHT22;4484;48.928;10.066;2022-09-09T17:37:04;17.70;99.10
8896;DHT22;4484;48.928;10.066;2022-09-09T17:39:32;17.70;99.80
8896;DHT22;4484;48.928;10.066;2022-09-09T17:41:59;17.60;99.90
8896;DHT22;4484;48.928;10.066;2022-09-09T17:44:27;17.60;99.90
8896;DHT22;4484;48.928;10.066;2022-09-09T17:46:55;17.60;99.90
8896;DHT22;4484;48.928;10.066;2022-09-09T17:49:23;17.40;99.90
8896;DHT22;4484;48.928;10.066;2022-09-09T17:51:50;17.30;99.90
8896;DHT22;4484;48.928;10.066;2022-09-09T17:54:19;17.20;99.90
8896;DHT22;4484;48.928;10.066;2022-09-09T17:56:47;17.10;99.90
8896;DHT22;4484;48.928;10.066;2022-09-09T17:59:15;17.00;99.90
8896;DHT22;4484;48.928;10.066;2022-09-09T18:01:45;16.90;99.90
8896;DHT22;4484;48.928;10.066;2022-09-09T18:04:14;16.80;99.90
8896;DHT22;4484;48.928;10.066;2022-09-09T18:06:46;16.70;99.90
8896;DHT22;4484;48.928;10.066;2022-09-09T18:09:20;16.50;99.90
8896;DHT22;4484;48.928;10.066;2022-09-09T18:11:49;16.50;99.90
8896;DHT22;4484;48.928;10.066;2022-09-09T18:14:20;16.40;99.90
8896;DHT22;4484;48.928;10.066;2022-09-09T18:16:48;16.30;99.90
8896;DHT22;4484;48.928;10.066;2022-09-09T18:19:17;16.20;99.90
8896;DHT22;4484;48.928;10.066;2022-09-09T18:21:44;16.10;99.90
8896;DHT22;4484;48.928;10.066;2022-09-09T18:24:13;16.10;99.90
8896;DHT22;4484;48.928;10.066;2022-09-09T18:26:42;16.00;99.90
8896;DHT22;4484;48.928;10.066;2022-09-09T18:29:11;15.90;99.90
8896;DHT22;4484;48.928;10.066;2022-09-09T18:31:39;15.80;99.90
8896;DHT22;4484;48.928;10.066;2022-09-09T18:34:10;15.80;99.90
8896;DHT22;4484;48.928;10.066;2022-09-09T18:36:40;15.70;99.90
8896;DHT22;4484;48.928;10.066;2022-09-09T18:39:10;15.70;99.90
8896;DHT22;4484;48.928;10.066;2022-09-09T18:41:42;15.60;99.90
8896;DHT22;4484;48.928;10.066;2022-09-09T18:44:12;15.50;99.90
8896;DHT22;4484;48.928;10.066;2022-09-09T18:46:42;15.40;99.90
8896;DHT22;4484;48.928;10.066;2022-09-09T18:49:10;15.30;99.90
8896;DHT22;4484;48.928;10.066;2022-09-09T18:51:38;15.30;99.90
8896;DHT22;4484;48.928;10.066;2022-09-09T18:54:15;15.20;99.90
8896;DHT22;4484;48.928;10.066;2022-09-09T18:56:42;15.10;99.90
8896;DHT22;4484;48.928;10.066;2022-09-09T18:59:12;15.10;99.90